createdAt,value
2022-12-20T00:01:26.458Z,12.40
2022-12-20T00:03:56.576Z,12.23
2022-12-20T00:06:25.594Z,11.73
2022-12-20T00:08:55.044Z,12.90
2022-12-20T00:11:23.910Z,12.30
2022-12-20T00:13:51.885Z,11.17
2022-12-20T00:16:21.974Z,11.53
2022-12-20T00:18:52.968Z,11.50
2022-12-20T00:21:20.983Z,11.53
2022-12-20T00:23:48.997Z,12.20
2022-12-20T00:26:19.370Z,11.33
2022-12-20T00:28:47.719Z,11.10
2022-12-20T00:31:19.099Z,10.97
2022-12-20T00:33:49.004Z,11.00
2022-12-20T00:36:19.271Z,10.40
2022-12-20T00:38:47.781Z,10.80
2022-12-20T00:41:17.946Z,10.47
2022-12-20T00:43:46.004Z,10.50
2022-12-20T00:46:15.351Z,10.23
2022-12-20T00:48:43.676Z,10.00
2022-12-20T00:51:13.620Z,10.60
2022-12-20T00:53:43.656Z,10.50
2022-12-20T00:56:12.620Z,10.03
2022-12-20T00:58:43.136Z,9.70
2022-12-20T01:01:18.552Z,10.10
2022-12-20T01:03:49.419Z,9.90
2022-12-20T01:06:17.617Z,10.77
2022-12-20T01:08:46.899Z,9.97
2022-12-20T01:11:17.452Z,10.00
2022-12-20T01:13:47.768Z,9.90
2022-12-20T01:16:17.859Z,9.70
2022-12-20T01:18:46.983Z,9.20
2022-12-20T01:21:16.641Z,9.13
2022-12-20T01:23:46.155Z,9.80
2022-12-20T01:26:16.555Z,10.27
2022-12-20T01:28:47.024Z,9.60
2022-12-20T01:31:17.081Z,9.30
2022-12-20T01:33:46.455Z,9.50
2022-12-20T01:36:16.640Z,9.27
2022-12-20T01:38:46.312Z,9.10
2022-12-20T01:41:17.419Z,8.67
2022-12-20T01:43:49.090Z,8.80
2022-12-20T01:46:17.614Z,9.13
2022-12-20T01:48:50.462Z,9.53
2022-12-20T01:51:20.063Z,8.80
2022-12-20T01:53:52.991Z,8.67
2022-12-20T01:56:21.075Z,8.87
2022-12-20T01:58:52.581Z,9.27
2022-12-20T02:01:22.608Z,9.23
2022-12-20T02:03:52.219Z,8.73
2022-12-20T02:06:23.789Z,9.30
2022-12-20T02:08:59.192Z,9.17
2022-12-20T02:11:41.441Z,8.40
2022-12-20T02:14:20.038Z,9.37
2022-12-20T02:16:54.567Z,9.40
2022-12-20T02:19:56.731Z,9.63
2022-12-20T02:22:30.903Z,8.90
2022-12-20T02:25:17.912Z,9.10
2022-12-20T02:27:54.041Z,8.80
2022-12-20T02:30:29.589Z,9.40
2022-12-20T02:33:03.324Z,8.87
2022-12-20T02:35:35.750Z,8.97
2022-12-20T02:38:21.797Z,9.13
2022-12-20T02:40:51.336Z,8.87
2022-12-20T02:43:37.836Z,8.87
2022-12-20T02:46:08.467Z,8.93
2022-12-20T02:48:38.543Z,9.00
2022-12-20T02:51:07.896Z,8.53
2022-12-20T02:53:37.219Z,8.83
2022-12-20T02:56:10.885Z,8.33
2022-12-20T02:58:45.914Z,8.00
2022-12-20T03:01:21.074Z,8.63
2022-12-20T03:03:49.765Z,8.57
2022-12-20T03:06:17.904Z,8.13
2022-12-20T03:08:46.578Z,8.67
2022-12-20T03:11:14.997Z,8.70
2022-12-20T03:13:43.215Z,8.20
2022-12-20T03:16:11.782Z,8.00
2022-12-20T03:18:41.487Z,8.40
2022-12-20T03:21:09.377Z,8.37
2022-12-20T03:23:37.230Z,7.87
2022-12-20T03:26:05.278Z,8.17
2022-12-20T03:28:41.071Z,8.97
2022-12-20T03:31:10.898Z,8.30
2022-12-20T03:33:47.624Z,8.27
2022-12-20T03:36:16.362Z,7.97
2022-12-20T03:38:44.433Z,7.60
2022-12-20T03:41:12.550Z,8.30
2022-12-20T03:43:40.406Z,8.50
2022-12-20T03:46:08.547Z,8.07
2022-12-20T03:48:39.621Z,8.27
2022-12-20T03:51:12.507Z,8.13
2022-12-20T03:53:40.456Z,8.47
2022-12-20T03:56:09.026Z,8.20
2022-12-20T03:58:37.641Z,7.93
2022-12-20T04:01:18.410Z,8.00
2022-12-20T04:03:47.283Z,8.03
2022-12-20T04:06:17.062Z,7.93
2022-12-20T04:08:45.697Z,8.33
2022-12-20T04:11:19.047Z,7.80
2022-12-20T04:14:03.043Z,8.20
2022-12-20T04:16:32.037Z,8.10
2022-12-20T04:19:01.671Z,7.67
2022-12-20T04:21:36.465Z,7.20
2022-12-20T04:24:06.841Z,8.13
2022-12-20T04:27:07.312Z,7.43
2022-12-20T04:29:35.358Z,7.83
2022-12-20T04:32:05.036Z,6.83
2022-12-20T04:34:33.106Z,7.30
2022-12-20T04:37:02.619Z,8.20
2022-12-20T04:39:40.199Z,7.93
2022-12-20T04:42:30.711Z,8.50
2022-12-20T04:44:59.246Z,6.97
2022-12-20T04:47:30.097Z,7.90
2022-12-20T04:49:58.541Z,7.37
2022-12-20T04:52:47.965Z,7.53
2022-12-20T04:55:17.357Z,7.73
2022-12-20T04:57:45.732Z,7.63
2022-12-20T05:00:15.647Z,7.63
2022-12-20T05:02:46.493Z,7.97
2022-12-20T05:05:18.066Z,7.83
2022-12-20T05:07:53.876Z,8.03
2022-12-20T05:10:22.517Z,8.20
2022-12-20T05:12:51.464Z,8.80
2022-12-20T05:15:31.313Z,8.00
2022-12-20T05:18:00.946Z,7.80
2022-12-20T05:20:37.066Z,8.73
2022-12-20T05:23:23.876Z,8.73
2022-12-20T05:26:14.749Z,8.70
2022-12-20T05:28:43.183Z,9.10
2022-12-20T05:31:11.543Z,8.20
2022-12-20T05:33:39.488Z,8.70
2022-12-20T05:36:07.809Z,8.90
2022-12-20T05:38:37.116Z,8.53
2022-12-20T05:41:11.705Z,8.73
2022-12-20T05:43:40.320Z,9.47
2022-12-20T05:46:08.399Z,9.07
2022-12-20T05:48:48.558Z,9.00
2022-12-20T05:51:16.484Z,9.17
2022-12-20T05:53:54.997Z,9.83
2022-12-20T05:56:33.003Z,9.60
2022-12-20T05:59:01.051Z,9.87
2022-12-20T06:01:30.687Z,10.03
2022-12-20T06:04:01.031Z,10.17
2022-12-20T06:06:30.587Z,10.50
2022-12-20T06:09:01.128Z,9.37
2022-12-20T06:11:39.337Z,11.33
2022-12-20T06:14:11.591Z,10.63
2022-12-20T06:16:45.053Z,10.87
2022-12-20T06:19:20.869Z,10.77
2022-12-20T06:21:50.555Z,11.80
2022-12-20T06:24:25.353Z,11.40
2022-12-20T06:26:54.132Z,11.53
2022-12-20T06:29:24.548Z,11.13
2022-12-20T06:31:57.135Z,11.53
2022-12-20T06:34:25.160Z,11.63
2022-12-20T06:36:53.014Z,12.27
2022-12-20T06:39:26.699Z,13.10
2022-12-20T06:42:03.346Z,12.40
2022-12-20T06:44:31.445Z,12.67
2022-12-20T06:47:00.060Z,12.83
2022-12-20T06:49:28.281Z,12.37
2022-12-20T06:51:57.015Z,11.83
2022-12-20T06:54:36.117Z,12.40
2022-12-20T06:57:04.093Z,13.50
2022-12-20T06:59:32.575Z,12.43
2022-12-20T07:02:00.641Z,12.70
2022-12-20T07:04:29.157Z,12.20
2022-12-20T07:06:57.081Z,12.80
2022-12-20T07:09:25.244Z,13.00
2022-12-20T07:11:54.442Z,13.00
2022-12-20T07:14:22.303Z,12.50
2022-12-20T07:16:50.336Z,13.40
2022-12-20T07:19:18.426Z,12.77
2022-12-20T07:21:48.006Z,13.03
2022-12-20T07:24:15.907Z,13.20
2022-12-20T07:26:45.584Z,13.83
2022-12-20T07:29:16.160Z,13.80
2022-12-20T07:31:44.396Z,13.67
2022-12-20T07:34:12.314Z,13.03
2022-12-20T07:36:40.214Z,13.30
2022-12-20T07:39:08.188Z,13.63
2022-12-20T07:41:36.080Z,13.57
2022-12-20T07:44:04.208Z,13.63
2022-12-20T07:46:33.435Z,15.30
2022-12-20T07:49:01.303Z,14.20
2022-12-20T07:51:32.539Z,15.03
2022-12-20T07:54:04.926Z,15.37
2022-12-20T07:56:40.721Z,14.33
2022-12-20T07:59:12.488Z,14.40
2022-12-20T08:01:44.109Z,14.53
2022-12-20T08:04:16.785Z,14.57
2022-12-20T08:06:45.219Z,13.93
2022-12-20T08:09:15.190Z,14.23
2022-12-20T08:11:45.923Z,13.53
2022-12-20T08:14:15.268Z,14.70
2022-12-20T08:16:44.590Z,15.07
2022-12-20T08:19:12.518Z,14.23
2022-12-20T08:21:40.364Z,14.30
2022-12-20T08:24:08.727Z,13.83
2022-12-20T08:26:39.300Z,14.13
2022-12-20T08:29:07.382Z,13.83
2022-12-20T08:31:38.252Z,14.77
2022-12-20T08:34:07.573Z,13.90
2022-12-20T08:36:35.378Z,13.80
2022-12-20T08:39:03.823Z,14.03
2022-12-20T08:41:31.652Z,13.47
2022-12-20T08:43:59.559Z,13.63
2022-12-20T08:46:27.840Z,13.60
2022-12-20T08:48:55.845Z,14.77
2022-12-20T08:51:25.236Z,13.53
2022-12-20T08:53:53.707Z,13.37
2022-12-20T08:56:21.585Z,13.33
2022-12-20T08:58:49.797Z,13.50
2022-12-20T09:01:19.458Z,13.00
2022-12-20T09:03:47.738Z,12.73
2022-12-20T09:06:17.789Z,13.57
2022-12-20T09:08:47.242Z,13.90
2022-12-20T09:11:17.012Z,12.90
2022-12-20T09:13:46.870Z,13.80
2022-12-20T09:16:16.607Z,13.47
2022-12-20T09:18:45.048Z,13.90
2022-12-20T09:21:13.190Z,12.93
2022-12-20T09:23:41.076Z,12.87
2022-12-20T09:26:13.090Z,13.40
2022-12-20T09:28:41.502Z,12.57
2022-12-20T09:31:12.916Z,13.17
2022-12-20T09:33:41.100Z,12.70
2022-12-20T09:36:12.687Z,13.67
2022-12-20T09:38:40.688Z,12.97
2022-12-20T09:41:22.563Z,13.70
2022-12-20T09:43:51.794Z,13.27
2022-12-20T09:46:20.071Z,13.87
2022-12-20T09:48:48.376Z,12.90
2022-12-20T09:51:44.848Z,13.77
2022-12-20T09:54:23.116Z,13.37
2022-12-20T09:57:05.977Z,12.77
2022-12-20T09:59:40.406Z,12.73
2022-12-20T10:02:44.562Z,12.57
2022-12-20T10:05:00.625Z,12.53
2022-12-20T10:07:39.965Z,12.37
2022-12-20T10:10:34.220Z,12.13
2022-12-20T10:13:14.812Z,12.33
2022-12-20T10:15:48.256Z,13.07
2022-12-20T10:18:30.207Z,12.03
2022-12-20T10:21:01.544Z,12.47
2022-12-20T10:23:34.563Z,12.10
2022-12-20T10:26:02.687Z,12.00
2022-12-20T10:28:35.678Z,11.43
2022-12-20T10:31:06.662Z,12.20
2022-12-20T10:33:35.039Z,12.30
2022-12-20T10:36:24.547Z,11.47
2022-12-20T10:38:54.467Z,11.67
2022-12-20T10:41:24.960Z,11.87
2022-12-20T10:43:59.152Z,11.93
2022-12-20T10:46:36.757Z,11.43
2022-12-20T10:49:27.770Z,11.13
2022-12-20T10:51:57.514Z,11.93
2022-12-20T10:54:30.267Z,11.17
2022-12-20T10:57:01.880Z,11.23
2022-12-20T10:59:37.598Z,12.20
2022-12-20T11:02:30.290Z,10.90
2022-12-20T11:05:16.452Z,10.90
2022-12-20T11:08:33.445Z,11.70
2022-12-20T11:10:43.887Z,10.93
2022-12-20T11:13:22.579Z,11.63
2022-12-20T11:15:57.011Z,10.97
2022-12-20T11:18:36.460Z,10.97
2022-12-20T11:21:18.479Z,11.77
2022-12-20T11:23:53.315Z,11.43
2022-12-20T11:26:36.650Z,10.70
2022-12-20T11:29:21.470Z,11.00
2022-12-20T11:32:03.813Z,10.00
2022-12-20T11:34:44.374Z,10.87
2022-12-20T11:37:21.235Z,10.93
2022-12-20T11:40:05.943Z,10.17
2022-12-20T11:42:48.436Z,10.50
2022-12-20T11:45:24.431Z,10.53
2022-12-20T11:48:19.772Z,10.47
2022-12-20T11:51:00.229Z,10.13
2022-12-20T11:53:34.889Z,9.80
2022-12-20T11:56:10.526Z,10.07
2022-12-20T11:58:52.773Z,9.20
2022-12-20T12:01:25.324Z,9.70
2022-12-20T12:04:04.212Z,10.00
2022-12-20T12:06:36.759Z,9.23
2022-12-20T12:09:15.336Z,9.93
2022-12-20T12:14:44.513Z,9.00
2022-12-20T12:17:18.888Z,9.83
2022-12-20T12:19:51.556Z,9.10
2022-12-20T12:22:25.383Z,9.80
2022-12-20T12:24:59.075Z,9.50
2022-12-20T12:27:28.850Z,9.60
2022-12-20T12:29:59.649Z,9.60
2022-12-20T12:32:34.010Z,9.10
2022-12-20T12:35:20.898Z,9.27
2022-12-20T12:38:04.458Z,9.07
2022-12-20T12:40:55.155Z,8.80
2022-12-20T12:43:47.268Z,8.80
2022-12-20T12:46:18.089Z,9.27
2022-12-20T12:48:52.073Z,9.00
2022-12-20T12:51:27.894Z,8.53
2022-12-20T12:54:04.928Z,8.80
2022-12-20T12:56:45.896Z,8.93
2022-12-20T12:59:43.766Z,8.90
2022-12-20T13:02:35.356Z,9.07
2022-12-20T13:05:35.963Z,8.77
2022-12-20T13:08:15.764Z,9.23
2022-12-20T13:11:00.377Z,8.90
2022-12-20T13:13:28.641Z,8.80
2022-12-20T13:16:11.340Z,8.90
2022-12-20T13:18:39.369Z,9.23
2022-12-20T13:21:33.229Z,8.73
2022-12-20T13:24:37.795Z,9.30
2022-12-20T13:27:18.334Z,9.07
2022-12-20T13:29:59.999Z,9.30
2022-12-20T13:32:58.197Z,8.67
2022-12-20T13:35:31.101Z,9.03
2022-12-20T13:38:01.891Z,8.90
2022-12-20T13:40:37.383Z,9.33
2022-12-20T13:43:12.996Z,9.07
2022-12-20T13:45:44.287Z,9.03
2022-12-20T13:48:17.898Z,9.20
2022-12-20T13:50:52.318Z,9.00
2022-12-20T13:53:22.008Z,9.07
2022-12-20T13:55:50.620Z,8.80
2022-12-20T13:58:22.526Z,8.50
2022-12-20T14:00:52.254Z,9.50
2022-12-20T14:03:25.835Z,8.60
2022-12-20T14:05:58.888Z,9.57
2022-12-20T14:08:30.052Z,9.30
2022-12-20T14:11:08.892Z,9.70
2022-12-20T14:13:38.481Z,8.87
2022-12-20T14:16:14.724Z,8.93
2022-12-20T14:18:44.330Z,9.47
2022-12-20T14:21:12.335Z,9.13
2022-12-20T14:23:45.170Z,9.30
2022-12-20T14:26:16.696Z,8.60
2022-12-20T14:28:48.015Z,8.23
2022-12-20T14:31:27.384Z,8.17
2022-12-20T14:34:04.374Z,8.87
2022-12-20T14:36:33.718Z,8.80
2022-12-20T14:39:01.652Z,8.93
2022-12-20T14:41:38.243Z,8.43
2022-12-20T14:44:18.179Z,8.80
2022-12-20T14:46:51.198Z,8.83
2022-12-20T14:49:23.849Z,8.60
2022-12-20T14:51:52.359Z,9.30
2022-12-20T14:55:05.195Z,9.07
2022-12-20T14:57:20.724Z,8.47
2022-12-20T15:00:02.254Z,9.10
2022-12-20T15:02:37.768Z,8.67
2022-12-20T15:05:28.333Z,9.00
2022-12-20T15:07:56.199Z,8.93
2022-12-20T15:10:24.604Z,8.23
2022-12-20T15:12:52.556Z,8.63
2022-12-20T15:15:29.205Z,8.80
2022-12-20T15:17:57.462Z,9.47
2022-12-20T15:20:25.423Z,9.33
2022-12-20T15:22:53.316Z,9.40
2022-12-20T15:25:21.118Z,9.60
2022-12-20T15:27:49.180Z,9.60
2022-12-20T15:30:17.990Z,9.30
2022-12-20T15:32:54.955Z,9.00
2022-12-20T15:35:24.726Z,9.00
2022-12-20T15:37:52.562Z,9.53
2022-12-20T15:40:20.572Z,9.70
2022-12-20T15:42:48.408Z,9.33
2022-12-20T15:45:16.946Z,9.47
2022-12-20T15:47:44.770Z,9.70
2022-12-20T15:50:14.209Z,10.13
2022-12-20T15:52:42.570Z,8.70
2022-12-20T15:55:12.063Z,9.00
2022-12-20T15:57:39.887Z,8.67
2022-12-20T16:00:09.034Z,9.07
2022-12-20T16:02:40.284Z,9.47
2022-12-20T16:05:13.494Z,8.93
2022-12-20T16:07:42.845Z,9.17
2022-12-20T16:10:14.747Z,10.07
2022-12-20T16:12:43.021Z,9.63
2022-12-20T16:15:22.715Z,9.07
2022-12-20T16:17:50.723Z,9.20
2022-12-20T16:20:19.290Z,9.30
2022-12-20T16:22:48.567Z,9.83
2022-12-20T16:25:28.386Z,9.17
2022-12-20T16:27:56.245Z,8.90
2022-12-20T16:30:24.425Z,9.70
2022-12-20T16:32:52.726Z,9.30
2022-12-20T16:35:27.392Z,8.53
2022-12-20T16:37:57.423Z,9.70
2022-12-20T16:40:27.996Z,9.73
2022-12-20T16:42:56.790Z,9.83
2022-12-20T16:45:26.439Z,8.90
2022-12-20T16:47:54.640Z,9.40
2022-12-20T16:50:24.390Z,10.20
2022-12-20T16:52:52.616Z,9.53
2022-12-20T16:55:25.994Z,10.43
2022-12-20T16:57:54.678Z,9.67
2022-12-20T17:00:24.352Z,9.10
2022-12-20T17:02:53.958Z,9.73
2022-12-20T17:05:24.718Z,10.10
2022-12-20T17:07:52.589Z,9.90
2022-12-20T17:10:22.379Z,9.63
2022-12-20T17:12:50.957Z,9.87
2022-12-20T17:15:22.392Z,10.57
2022-12-20T17:17:51.022Z,10.93
2022-12-20T17:20:20.352Z,9.43
2022-12-20T17:25:40.101Z,10.43
2022-12-20T17:28:07.918Z,10.17
2022-12-20T17:30:35.900Z,10.87
2022-12-20T17:33:03.791Z,10.90
2022-12-20T17:35:34.038Z,10.13
2022-12-20T17:38:02.701Z,10.67
2022-12-20T17:40:30.634Z,10.10
2022-12-20T17:42:59.876Z,10.77
2022-12-20T17:45:30.899Z,9.97
2022-12-20T17:47:59.343Z,10.10
2022-12-20T17:50:27.723Z,10.07
2022-12-20T17:52:55.884Z,10.30
2022-12-20T17:55:26.980Z,10.47
2022-12-20T17:57:56.083Z,10.43
2022-12-20T18:00:31.786Z,10.60
2022-12-20T18:03:04.674Z,11.13
2022-12-20T18:05:32.732Z,10.53
2022-12-20T18:08:00.605Z,10.07
2022-12-20T18:10:28.493Z,10.13
2022-12-20T18:12:56.327Z,10.67
2022-12-20T18:15:25.497Z,11.43
2022-12-20T18:17:53.532Z,10.20
2022-12-20T18:20:21.376Z,10.50
2022-12-20T18:22:49.245Z,10.73
2022-12-20T18:25:18.156Z,11.03
2022-12-20T18:27:46.164Z,11.70
2022-12-20T18:30:14.554Z,10.73
2022-12-20T18:32:43.773Z,11.10
2022-12-20T18:35:11.674Z,11.03
2022-12-20T18:37:39.541Z,10.67
2022-12-20T18:40:08.887Z,10.43
2022-12-20T18:42:36.745Z,9.93
2022-12-20T18:45:05.083Z,10.00
2022-12-20T18:47:33.237Z,12.67
2022-12-20T18:50:02.391Z,10.73
2022-12-20T18:52:30.355Z,10.23
2022-12-20T18:54:58.141Z,12.10
2022-12-20T18:57:26.598Z,10.17
2022-12-20T18:59:54.438Z,11.40
2022-12-20T19:02:22.492Z,12.30
2022-12-20T19:04:50.432Z,11.00
2022-12-20T19:07:19.597Z,11.73
2022-12-20T19:09:47.395Z,13.47
2022-12-20T19:12:15.304Z,11.80
2022-12-20T19:14:43.138Z,11.03
2022-12-20T19:17:11.095Z,10.10
2022-12-20T19:19:38.956Z,10.73
2022-12-20T19:22:06.835Z,10.53
2022-12-20T19:24:35.995Z,10.70
2022-12-20T19:27:06.146Z,10.63
2022-12-20T19:29:34.028Z,10.67
2022-12-20T19:32:01.828Z,10.77
2022-12-20T19:34:29.907Z,10.70
2022-12-20T19:36:57.726Z,11.13
2022-12-20T19:39:25.566Z,11.20
2022-12-20T19:42:22.396Z,11.00
2022-12-20T19:44:42.976Z,11.10
2022-12-20T19:47:10.913Z,11.33
2022-12-20T19:49:38.786Z,11.40
2022-12-20T19:52:07.317Z,12.40
2022-12-20T19:54:36.029Z,11.70
2022-12-20T19:57:05.427Z,11.73
2022-12-20T19:59:33.345Z,12.33
2022-12-20T20:02:01.499Z,12.13
2022-12-20T20:04:29.826Z,11.50
2022-12-20T20:06:57.646Z,11.87
2022-12-20T20:09:25.629Z,12.40
2022-12-20T20:11:53.499Z,12.87
2022-12-20T20:14:23.277Z,13.00
2022-12-20T20:16:51.434Z,12.90
2022-12-20T20:19:19.391Z,13.73
2022-12-20T20:21:48.943Z,13.20
2022-12-20T20:24:17.306Z,13.83
2022-12-20T20:26:45.187Z,14.90
2022-12-20T20:29:13.026Z,13.67
2022-12-20T20:31:42.304Z,14.83
2022-12-20T20:34:10.192Z,13.90
2022-12-20T20:36:38.038Z,14.33
2022-12-20T20:39:06.472Z,13.93
2022-12-20T20:41:34.295Z,14.63
2022-12-20T20:44:02.160Z,14.80
2022-12-20T20:46:30.036Z,15.20
2022-12-20T20:48:59.477Z,16.30
2022-12-20T20:51:27.376Z,15.50
2022-12-20T20:53:55.242Z,16.47
2022-12-20T20:56:23.239Z,16.70
2022-12-20T20:58:52.194Z,16.07
2022-12-20T21:01:20.064Z,18.13
2022-12-20T21:03:48.569Z,16.90
2022-12-20T21:06:40.043Z,16.90
2022-12-20T21:09:06.849Z,16.80
2022-12-20T21:11:36.343Z,17.43
2022-12-20T21:14:05.082Z,17.23
2022-12-20T21:16:33.110Z,17.90
2022-12-20T21:19:00.970Z,17.80
2022-12-20T21:21:30.157Z,18.00
2022-12-20T21:23:58.191Z,18.60
2022-12-20T21:26:26.236Z,20.50
2022-12-20T21:28:57.658Z,18.73
2022-12-20T21:31:25.640Z,18.13
2022-12-20T21:33:53.590Z,18.60
2022-12-20T21:36:21.543Z,18.37
2022-12-20T21:38:52.009Z,18.03
2022-12-20T21:41:23.056Z,18.63
2022-12-20T21:43:51.247Z,19.03
2022-12-20T21:46:19.139Z,20.10
2022-12-20T21:48:47.602Z,19.07
2022-12-20T21:51:17.779Z,18.57
2022-12-20T21:53:48.780Z,20.20
2022-12-20T21:56:18.806Z,19.37
2022-12-20T21:58:47.227Z,20.13
2022-12-20T22:01:17.657Z,19.73
2022-12-20T22:03:45.688Z,19.40
2022-12-20T22:06:13.587Z,19.43
2022-12-20T22:08:41.481Z,18.20
2022-12-20T22:11:12.050Z,19.63
2022-12-20T22:13:42.426Z,18.70
2022-12-20T22:16:11.998Z,19.13
2022-12-20T22:18:40.942Z,18.90
2022-12-20T22:21:11.198Z,18.53
2022-12-20T22:23:39.358Z,18.30
2022-12-20T22:26:09.387Z,18.60
2022-12-20T22:28:38.184Z,17.70
2022-12-20T22:31:10.149Z,18.03
2022-12-20T22:33:39.023Z,16.73
2022-12-20T22:36:07.805Z,16.67
2022-12-20T22:38:36.228Z,16.73
2022-12-20T22:41:09.435Z,17.27
2022-12-20T22:43:37.791Z,16.30
2022-12-20T22:48:53.363Z,16.27
2022-12-20T22:51:22.676Z,15.67
2022-12-20T22:53:50.973Z,16.23
2022-12-20T22:56:21.098Z,15.73
2022-12-20T22:58:49.847Z,16.17
2022-12-20T23:01:19.425Z,16.77
2022-12-20T23:03:48.019Z,16.57
2022-12-20T23:06:18.788Z,15.83
2022-12-20T23:08:47.387Z,17.07
2022-12-20T23:11:35.954Z,17.17
2022-12-20T23:14:22.992Z,15.33
2022-12-20T23:16:51.227Z,15.57
2022-12-20T23:19:19.128Z,16.33
2022-12-20T23:22:11.047Z,16.33
2022-12-20T23:24:38.922Z,14.77
2022-12-20T23:27:06.687Z,14.30
2022-12-20T23:29:34.681Z,14.77
2022-12-20T23:32:02.594Z,15.37
2022-12-20T23:34:31.006Z,14.37
2022-12-20T23:37:00.160Z,14.93
2022-12-20T23:39:28.006Z,13.43
2022-12-20T23:41:55.842Z,13.57
2022-12-20T23:44:23.868Z,13.90
2022-12-20T23:46:51.645Z,13.40
2022-12-20T23:49:19.695Z,13.20
2022-12-20T23:51:47.480Z,13.57
2022-12-20T23:54:19.382Z,13.23
2022-12-20T23:56:47.206Z,12.73
2022-12-20T23:59:16.049Z,12.97
